createdAt,value
2023-07-25T00:02:05.495Z,99596.25
2023-07-25T00:04:32.868Z,99596.13
2023-07-25T00:07:00.215Z,99598.44
2023-07-25T00:09:27.692Z,99598.81
2023-07-25T00:11:55.079Z,99602.28
2023-07-25T00:14:22.426Z,99604.53
2023-07-25T00:16:50.426Z,99606.97
2023-07-25T00:19:17.998Z,99608.28
2023-07-25T00:21:45.427Z,99617.81
2023-07-25T00:24:12.831Z,99618.25
2023-07-25T00:26:40.246Z,99623.38
2023-07-25T00:29:07.634Z,99621.69
2023-07-25T00:31:35.308Z,99620.81
2023-07-25T00:34:05.018Z,99616.97
2023-07-25T00:36:32.571Z,99610.53
2023-07-25T00:39:00.055Z,99592.44
2023-07-25T00:41:27.485Z,99590.44
2023-07-25T00:43:54.851Z,99584.72
2023-07-25T00:46:22.337Z,99592.56
2023-07-25T00:48:49.920Z,99591.00
2023-07-25T00:51:17.378Z,99601.00
2023-07-25T00:53:45.098Z,99608.16
2023-07-25T00:56:14.049Z,99579.47
2023-07-25T00:58:41.451Z,99568.91
2023-07-25T01:01:09.065Z,99570.78
2023-07-25T01:03:39.199Z,99573.03
2023-07-25T01:06:12.313Z,99566.63
2023-07-25T01:08:56.226Z,99549.31
2023-07-25T01:11:24.675Z,99544.63
2023-07-25T01:13:52.389Z,99537.47
2023-07-25T01:16:24.874Z,99525.94
2023-07-25T01:18:53.467Z,99517.63
2023-07-25T01:21:23.070Z,99519.63
2023-07-25T01:23:50.993Z,99513.06
2023-07-25T01:26:19.211Z,99516.06
2023-07-25T01:28:46.684Z,99511.66
2023-07-25T01:31:14.047Z,99523.19
2023-07-25T01:33:41.534Z,99519.06
2023-07-25T01:36:08.965Z,99506.34
2023-07-25T01:38:36.335Z,99513.34
2023-07-25T01:41:03.798Z,99511.06
2023-07-25T01:43:31.220Z,99500.78
2023-07-25T01:45:59.013Z,99495.38
2023-07-25T01:48:26.507Z,99496.66
2023-07-25T01:50:53.885Z,99490.13
2023-07-25T01:53:21.491Z,99476.41
2023-07-25T01:55:49.145Z,99484.09
2023-07-25T01:58:16.542Z,99481.38
2023-07-25T02:00:43.947Z,99478.97
2023-07-25T02:03:17.085Z,99460.41
2023-07-25T02:05:44.715Z,99453.81
2023-07-25T02:08:13.955Z,99474.66
2023-07-25T02:10:41.388Z,99450.41
2023-07-25T02:13:08.879Z,99453.50
2023-07-25T02:15:37.701Z,99442.81
2023-07-25T02:18:05.230Z,99438.28
2023-07-25T02:20:33.603Z,99433.00
2023-07-25T02:23:01.081Z,99417.97
2023-07-25T02:25:30.003Z,99403.94
2023-07-25T02:27:57.457Z,99335.03
2023-07-25T02:30:24.958Z,99317.75
2023-07-25T02:32:52.358Z,99365.53
2023-07-25T02:35:19.808Z,99368.25
2023-07-25T02:37:47.910Z,99360.56
2023-07-25T02:40:15.321Z,99364.19
2023-07-25T02:42:42.967Z,99368.22
2023-07-25T02:45:10.883Z,99381.63
2023-07-25T02:47:38.596Z,99366.91
2023-07-25T02:50:07.639Z,99363.91
2023-07-25T02:55:02.566Z,99354.50
2023-07-25T02:57:30.124Z,99351.75
2023-07-25T02:59:57.545Z,99336.34
2023-07-25T03:02:25.114Z,99337.78
2023-07-25T03:04:52.781Z,99331.22
2023-07-25T03:07:20.292Z,99325.66
2023-07-25T03:09:47.800Z,99304.50
2023-07-25T03:12:15.306Z,99306.09
2023-07-25T03:14:42.816Z,99316.38
2023-07-25T03:17:10.435Z,99299.25
2023-07-25T03:19:37.946Z,99289.72
2023-07-25T03:22:05.838Z,99290.72
2023-07-25T03:24:33.438Z,99223.06
2023-07-25T03:27:00.893Z,99224.44
2023-07-25T03:29:28.474Z,99303.50
2023-07-25T03:31:56.054Z,99405.63
2023-07-25T03:34:23.613Z,99468.56
2023-07-25T03:36:51.097Z,99621.47
2023-07-25T03:39:18.729Z,99661.63
2023-07-25T03:41:46.326Z,99730.03
2023-07-25T03:44:21.388Z,99649.09
2023-07-25T03:46:48.860Z,99565.97
2023-07-25T03:49:16.677Z,99567.16
2023-07-25T03:51:44.153Z,99600.66
2023-07-25T03:54:11.605Z,99578.22
2023-07-25T03:56:39.085Z,99564.69
2023-07-25T03:59:06.522Z,99562.41
2023-07-25T04:01:34.188Z,99557.00
2023-07-25T04:04:01.994Z,99564.00
2023-07-25T04:06:29.529Z,99559.31
2023-07-25T04:08:56.996Z,99553.22
2023-07-25T04:11:24.579Z,99547.41
2023-07-25T04:13:51.972Z,99554.53
2023-07-25T04:16:19.568Z,99533.03
2023-07-25T04:18:47.137Z,99522.31
2023-07-25T04:21:14.615Z,99525.91
2023-07-25T04:23:42.502Z,99512.66
2023-07-25T04:26:10.085Z,99519.81
2023-07-25T04:28:37.513Z,99523.44
2023-07-25T04:31:04.965Z,99518.78
2023-07-25T04:33:32.505Z,99513.13
2023-07-25T04:35:59.931Z,99512.28
2023-07-25T04:38:27.337Z,99503.84
2023-07-25T04:40:54.824Z,99517.00
2023-07-25T04:43:22.309Z,99526.84
2023-07-25T04:45:54.656Z,99525.44
2023-07-25T04:48:23.022Z,99528.72
2023-07-25T04:50:50.952Z,99522.91
2023-07-25T04:53:18.567Z,99499.22
2023-07-25T04:55:46.049Z,99477.84
2023-07-25T04:58:13.534Z,99467.28
2023-07-25T05:00:41.313Z,99458.47
2023-07-25T05:03:10.613Z,99456.06
2023-07-25T05:05:38.380Z,99430.59
2023-07-25T05:08:05.891Z,99406.03
2023-07-25T05:10:33.435Z,99403.75
2023-07-25T05:13:00.911Z,99406.44
2023-07-25T05:15:28.409Z,99400.88
2023-07-25T05:17:55.932Z,99382.53
2023-07-25T05:20:23.460Z,99382.25
2023-07-25T05:22:51.130Z,99401.78
2023-07-25T05:25:18.618Z,99397.34
2023-07-25T05:27:46.199Z,99423.78
2023-07-25T05:30:14.106Z,99431.06
2023-07-25T05:32:42.008Z,99408.81
2023-07-25T05:35:09.606Z,99403.41
2023-07-25T05:37:38.723Z,99375.28
2023-07-25T05:40:07.148Z,99365.72
2023-07-25T05:42:35.166Z,99392.41
2023-07-25T05:45:02.892Z,99427.94
2023-07-25T05:47:31.710Z,99390.97
2023-07-25T05:49:59.345Z,99388.00
2023-07-25T05:52:26.983Z,99416.09
2023-07-25T05:54:55.000Z,99474.25
2023-07-25T05:57:22.618Z,99518.63
2023-07-25T05:59:50.141Z,99499.34
2023-07-25T06:02:17.788Z,99494.22
2023-07-25T06:04:47.446Z,99483.84
2023-07-25T06:07:15.989Z,99478.56
2023-07-25T06:09:43.434Z,99469.13
2023-07-25T06:12:11.279Z,99475.72
2023-07-25T06:14:38.722Z,99479.25
2023-07-25T06:17:06.639Z,99461.88
2023-07-25T06:19:34.079Z,99473.13
2023-07-25T06:22:01.599Z,99461.16
2023-07-25T06:24:29.235Z,99460.56
2023-07-25T06:26:56.827Z,99447.16
2023-07-25T06:29:24.503Z,99436.63
2023-07-25T06:31:52.505Z,99404.09
2023-07-25T06:34:20.189Z,99413.78
2023-07-25T06:36:47.563Z,99443.44
2023-07-25T06:39:15.248Z,99422.94
2023-07-25T06:41:43.181Z,99408.13
2023-07-25T06:44:16.529Z,99409.94
2023-07-25T06:46:44.131Z,99424.06
2023-07-25T06:49:11.875Z,99439.34
2023-07-25T06:51:39.337Z,99439.88
2023-07-25T06:54:06.830Z,99433.75
2023-07-25T06:56:34.235Z,99425.34
2023-07-25T06:59:02.529Z,99417.06
2023-07-25T07:01:30.571Z,99398.31
2023-07-25T07:03:58.398Z,99375.03
2023-07-25T07:06:26.957Z,99379.78
2023-07-25T07:08:54.474Z,99374.25
2023-07-25T07:11:22.052Z,99352.41
2023-07-25T07:13:49.587Z,99334.34
2023-07-25T07:16:17.123Z,99318.06
2023-07-25T07:18:44.853Z,99324.03
2023-07-25T07:21:12.481Z,99375.31
2023-07-25T07:23:39.895Z,99385.16
2023-07-25T07:26:07.615Z,99387.25
2023-07-25T07:28:35.091Z,99384.53
2023-07-25T07:31:02.631Z,99403.81
2023-07-25T07:33:31.118Z,99394.88
2023-07-25T07:35:58.600Z,99389.59
2023-07-25T07:38:26.031Z,99344.78
2023-07-25T07:40:55.196Z,99312.91
2023-07-25T07:43:22.934Z,99336.69
2023-07-25T07:45:50.625Z,99346.28
2023-07-25T07:48:18.135Z,99384.19
2023-07-25T07:50:45.749Z,99403.03
2023-07-25T07:53:13.256Z,99394.03
2023-07-25T07:55:40.739Z,99362.25
2023-07-25T07:58:08.274Z,99326.78
2023-07-25T08:00:35.801Z,99342.31
2023-07-25T08:03:03.696Z,99348.16
2023-07-25T08:05:32.243Z,99312.25
2023-07-25T08:07:59.667Z,99310.97
2023-07-25T08:10:27.257Z,99323.09
2023-07-25T08:12:54.797Z,99351.88
2023-07-25T08:15:22.300Z,99359.16
2023-07-25T08:17:50.030Z,99372.41
2023-07-25T08:20:17.676Z,99478.41
2023-07-25T08:22:46.920Z,99560.47
2023-07-25T08:25:14.501Z,99574.28
2023-07-25T08:27:41.984Z,99576.53
2023-07-25T08:30:09.782Z,99505.75
2023-07-25T08:32:37.294Z,99492.63
2023-07-25T08:35:05.200Z,99470.03
2023-07-25T08:37:32.784Z,99462.31
2023-07-25T08:40:00.393Z,99529.16
2023-07-25T08:42:32.943Z,99547.13
2023-07-25T08:45:02.036Z,99556.69
2023-07-25T08:47:33.733Z,99537.84
2023-07-25T08:50:02.213Z,99513.75
2023-07-25T08:52:33.074Z,99505.19
2023-07-25T08:55:00.807Z,99505.94
2023-07-25T08:57:30.373Z,99520.22
2023-07-25T08:59:58.744Z,99520.44
2023-07-25T09:02:27.066Z,99517.31
2023-07-25T09:04:55.333Z,99513.78
2023-07-25T09:07:22.847Z,99516.06
2023-07-25T09:09:50.411Z,99514.63
2023-07-25T09:12:19.259Z,99523.19
2023-07-25T09:14:46.837Z,99532.47
2023-07-25T09:17:14.479Z,99528.78
2023-07-25T09:19:42.733Z,99534.91
2023-07-25T09:22:30.250Z,99534.19
2023-07-25T09:24:59.138Z,99525.19
2023-07-25T09:27:27.306Z,99508.50
2023-07-25T09:29:55.198Z,99496.53
2023-07-25T09:32:28.824Z,99486.78
2023-07-25T09:35:01.912Z,99498.63
2023-07-25T09:37:30.193Z,99508.63
2023-07-25T09:39:57.896Z,99497.19
2023-07-25T09:42:27.287Z,99491.59
2023-07-25T09:44:55.518Z,99476.03
2023-07-25T09:47:27.994Z,99491.03
2023-07-25T09:49:57.724Z,99471.06
2023-07-25T09:52:26.747Z,99469.69
2023-07-25T09:54:54.442Z,99472.75
2023-07-25T09:57:22.151Z,99453.78
2023-07-25T09:59:50.852Z,99443.75
2023-07-25T10:02:19.239Z,99451.06
2023-07-25T10:04:49.093Z,99431.88
2023-07-25T10:07:16.874Z,99442.00
2023-07-25T10:09:47.458Z,99437.91
2023-07-25T10:12:15.079Z,99417.03
2023-07-25T10:14:42.637Z,99425.91
2023-07-25T10:17:11.215Z,99416.63
2023-07-25T10:19:50.430Z,99418.31
2023-07-25T10:22:32.544Z,99420.81
2023-07-25T10:25:00.289Z,99426.25
2023-07-25T10:27:28.449Z,99426.38
2023-07-25T10:30:01.844Z,99413.03
2023-07-25T10:32:47.457Z,99407.50
2023-07-25T10:35:15.004Z,99409.84
2023-07-25T10:37:45.976Z,99407.53
2023-07-25T10:40:24.632Z,99401.16
2023-07-25T10:43:05.773Z,99389.25
2023-07-25T10:45:35.019Z,99395.16
2023-07-25T10:48:02.662Z,99397.91
2023-07-25T10:50:54.370Z,99390.13
2023-07-25T10:53:23.903Z,99394.56
2023-07-25T10:56:10.251Z,99384.88
2023-07-25T10:58:58.178Z,99384.78
2023-07-25T11:01:51.943Z,99393.19
2023-07-25T11:04:28.359Z,99382.28
2023-07-25T11:06:56.882Z,99372.56
2023-07-25T11:09:25.858Z,99368.34
2023-07-25T11:11:55.082Z,99368.34
2023-07-25T11:14:23.390Z,99372.22
2023-07-25T11:16:52.626Z,99363.19
2023-07-25T11:19:26.352Z,99365.06
2023-07-25T11:21:54.126Z,99368.81
2023-07-25T11:24:22.780Z,99368.16
2023-07-25T11:26:50.586Z,99360.13
2023-07-25T11:29:18.848Z,99358.25
2023-07-25T11:31:50.864Z,99350.06
2023-07-25T11:34:20.433Z,99347.63
2023-07-25T11:36:48.991Z,99354.66
2023-07-25T11:39:17.205Z,99352.25
2023-07-25T11:41:46.059Z,99351.06
2023-07-25T11:44:16.631Z,99347.28
2023-07-25T11:46:51.658Z,99351.00
2023-07-25T11:49:40.345Z,99337.72
2023-07-25T11:52:10.646Z,99339.38
2023-07-25T11:54:39.052Z,99351.16
2023-07-25T11:57:09.374Z,99330.31
2023-07-25T11:59:41.895Z,99332.66
2023-07-25T12:02:12.783Z,99318.22
2023-07-25T12:04:45.763Z,99323.00
2023-07-25T12:07:15.257Z,99325.84
2023-07-25T12:09:54.783Z,99314.91
2023-07-25T12:12:22.593Z,99318.53
2023-07-25T12:15:04.090Z,99307.22
2023-07-25T12:17:45.124Z,99302.69
2023-07-25T12:20:24.096Z,99302.59
2023-07-25T12:23:06.960Z,99299.97
2023-07-25T12:25:37.489Z,99311.69
2023-07-25T12:28:05.130Z,99307.03
2023-07-25T12:30:32.769Z,99299.34
2023-07-25T12:33:00.459Z,99291.50
2023-07-25T12:35:28.242Z,99290.16
2023-07-25T12:37:55.887Z,99292.41
2023-07-25T12:40:23.864Z,99293.38
2023-07-25T12:42:51.475Z,99287.19
2023-07-25T12:45:19.482Z,99304.03
2023-07-25T12:47:47.185Z,99292.59
2023-07-25T12:50:14.948Z,99290.16
2023-07-25T12:52:42.494Z,99286.56
2023-07-25T12:55:10.071Z,99284.06
2023-07-25T12:57:38.678Z,99282.75
2023-07-25T13:00:08.271Z,99268.16
2023-07-25T13:02:36.442Z,99279.47
2023-07-25T13:05:04.414Z,99264.25
2023-07-25T13:07:32.335Z,99250.16
2023-07-25T13:10:00.214Z,99254.41
2023-07-25T13:12:28.234Z,99241.53
2023-07-25T13:14:56.149Z,99232.72
2023-07-25T13:17:23.813Z,99225.75
2023-07-25T13:19:51.448Z,99223.72
2023-07-25T13:22:19.050Z,99220.41
2023-07-25T13:24:46.839Z,99226.84
2023-07-25T13:27:14.395Z,99231.16
2023-07-25T13:29:41.926Z,99223.72
2023-07-25T13:32:09.711Z,99227.88
2023-07-25T13:34:37.356Z,99223.06
2023-07-25T13:37:05.347Z,99219.09
2023-07-25T13:39:32.988Z,99220.78
2023-07-25T13:42:00.520Z,99231.84
2023-07-25T13:44:31.600Z,99223.63
2023-07-25T13:47:01.468Z,99221.38
2023-07-25T13:49:29.213Z,99228.16
2023-07-25T13:51:57.513Z,99226.94
2023-07-25T13:54:25.690Z,99217.31
2023-07-25T13:57:04.247Z,99219.56
2023-07-25T13:59:33.388Z,99214.75
2023-07-25T14:02:04.649Z,99220.78
2023-07-25T14:04:34.096Z,99204.28
2023-07-25T14:07:01.848Z,99222.22
2023-07-25T14:09:30.493Z,99211.56
2023-07-25T14:11:58.774Z,99219.78
2023-07-25T14:14:27.702Z,99201.19
2023-07-25T14:16:57.079Z,99220.66
2023-07-25T14:19:25.778Z,99211.41
2023-07-25T14:21:53.777Z,99198.84
2023-07-25T14:24:21.530Z,99190.75
2023-07-25T14:26:49.374Z,99191.88
2023-07-25T14:29:16.983Z,99195.47
2023-07-25T14:31:45.065Z,99191.31
2023-07-25T14:34:16.112Z,99208.19
2023-07-25T14:36:43.757Z,99199.03
2023-07-25T14:39:11.326Z,99196.38
2023-07-25T14:41:38.967Z,99193.66
2023-07-25T14:44:07.241Z,99202.63
2023-07-25T14:46:35.219Z,99203.13
2023-07-25T14:49:02.976Z,99204.44
2023-07-25T14:51:30.679Z,99201.88
2023-07-25T14:53:59.102Z,99194.72
2023-07-25T14:56:26.636Z,99195.06
2023-07-25T14:58:54.286Z,99187.75
2023-07-25T15:01:21.943Z,99206.50
2023-07-25T15:03:50.053Z,99190.84
2023-07-25T15:06:17.584Z,99183.06
2023-07-25T15:08:45.372Z,99187.88
2023-07-25T15:11:13.049Z,99184.97
2023-07-25T15:13:40.730Z,99197.69
2023-07-25T15:16:10.001Z,99191.38
2023-07-25T15:18:38.072Z,99195.91
2023-07-25T15:21:05.627Z,99182.03
2023-07-25T15:23:33.297Z,99189.84
2023-07-25T15:26:00.905Z,99195.25
2023-07-25T15:28:29.353Z,99192.59
2023-07-25T15:30:57.967Z,99194.75
2023-07-25T15:33:26.021Z,99187.22
2023-07-25T15:35:53.583Z,99184.56
2023-07-25T15:38:21.375Z,99179.28
2023-07-25T15:40:49.306Z,99162.59
2023-07-25T15:43:17.082Z,99171.72
2023-07-25T15:45:44.862Z,99174.66
2023-07-25T15:48:12.611Z,99166.72
2023-07-25T15:50:41.913Z,99159.16
2023-07-25T15:53:09.663Z,99171.53
2023-07-25T15:55:37.273Z,99170.97
2023-07-25T15:58:04.912Z,99157.75
2023-07-25T16:00:33.495Z,99178.22
2023-07-25T16:03:01.444Z,99170.56
2023-07-25T16:05:29.792Z,99161.53
2023-07-25T16:07:57.399Z,99170.75
2023-07-25T16:10:25.448Z,99170.56
2023-07-25T16:12:53.512Z,99167.84
2023-07-25T16:15:21.407Z,99150.44
2023-07-25T16:17:52.045Z,99156.81
2023-07-25T16:20:20.161Z,99146.47
2023-07-25T16:22:47.837Z,99144.38
2023-07-25T16:25:16.572Z,99134.88
2023-07-25T16:27:44.236Z,99134.63
2023-07-25T16:30:12.832Z,99138.47
2023-07-25T16:32:41.532Z,99135.34
2023-07-25T16:35:12.730Z,99143.53
2023-07-25T16:37:42.475Z,99133.47
2023-07-25T16:40:10.878Z,99129.78
2023-07-25T16:42:38.765Z,99137.69
2023-07-25T16:45:07.173Z,99141.16
2023-07-25T16:47:34.966Z,99120.22
2023-07-25T16:50:02.671Z,99120.09
2023-07-25T16:52:35.381Z,99118.41
2023-07-25T16:55:04.207Z,99122.72
2023-07-25T16:57:32.237Z,99124.50
2023-07-25T16:59:59.825Z,99123.09
2023-07-25T17:02:27.554Z,99122.59
2023-07-25T17:04:56.093Z,99122.59
2023-07-25T17:07:23.566Z,99127.75
2023-07-25T17:09:50.973Z,99135.63
2023-07-25T17:12:18.537Z,99128.34
2023-07-25T17:14:46.113Z,99133.97
2023-07-25T17:17:13.931Z,99128.34
2023-07-25T17:19:41.474Z,99131.44
2023-07-25T17:22:09.454Z,99126.63
2023-07-25T17:24:36.968Z,99129.56
2023-07-25T17:27:04.872Z,99132.19
2023-07-25T17:29:32.375Z,99134.72
2023-07-25T17:32:01.224Z,99130.06
2023-07-25T17:34:28.924Z,99129.16
2023-07-25T17:36:56.325Z,99128.97
2023-07-25T17:39:23.788Z,99130.84
2023-07-25T17:41:51.632Z,99130.31
2023-07-25T17:44:19.221Z,99132.00
2023-07-25T17:46:46.888Z,99127.84
2023-07-25T17:49:14.538Z,99134.34
2023-07-25T17:51:42.078Z,99133.69
2023-07-25T17:54:09.650Z,99127.56
2023-07-25T17:56:37.223Z,99120.81
2023-07-25T17:59:04.761Z,99126.19
2023-07-25T18:01:32.676Z,99125.34
2023-07-25T18:04:00.394Z,99120.63
2023-07-25T18:06:28.548Z,99116.44
2023-07-25T18:08:56.018Z,99110.97
2023-07-25T18:11:23.686Z,99115.09
2023-07-25T18:13:51.524Z,99112.25
2023-07-25T18:16:19.060Z,99102.25
2023-07-25T18:18:46.700Z,99101.94
2023-07-25T18:21:14.319Z,99111.53
2023-07-25T18:23:41.892Z,99113.56
2023-07-25T18:26:09.695Z,99110.38
2023-07-25T18:28:37.318Z,99121.13
2023-07-25T18:31:05.003Z,99121.03
2023-07-25T18:33:32.626Z,99124.47
2023-07-25T18:36:00.197Z,99121.91
2023-07-25T18:38:27.707Z,99120.06
2023-07-25T18:40:55.261Z,99124.19
2023-07-25T18:43:25.806Z,99134.25
2023-07-25T18:45:53.610Z,99130.84
2023-07-25T18:48:21.777Z,99127.97
2023-07-25T18:50:49.361Z,99133.09
2023-07-25T18:53:16.966Z,99129.69
2023-07-25T18:55:44.560Z,99135.50
2023-07-25T18:58:12.155Z,99142.66
2023-07-25T19:00:39.689Z,99139.59
2023-07-25T19:03:07.273Z,99143.88
2023-07-25T19:05:34.956Z,99137.06
2023-07-25T19:08:02.522Z,99142.41
2023-07-25T19:10:30.217Z,99145.44
2023-07-25T19:12:57.757Z,99154.66
2023-07-25T19:15:25.311Z,99163.88
2023-07-25T19:17:52.887Z,99163.69
2023-07-25T19:20:20.467Z,99170.16
2023-07-25T19:22:47.997Z,99170.69
2023-07-25T19:25:15.570Z,99168.47
2023-07-25T19:27:45.435Z,99169.50
2023-07-25T19:30:13.095Z,99184.84
2023-07-25T19:32:40.739Z,99184.69
2023-07-25T19:35:10.276Z,99194.41
2023-07-25T19:37:38.077Z,99194.88
2023-07-25T19:40:07.657Z,99203.41
2023-07-25T19:42:36.265Z,99213.13
2023-07-25T19:45:04.782Z,99217.41
2023-07-25T19:47:32.492Z,99210.22
2023-07-25T19:50:00.082Z,99221.13
2023-07-25T19:52:27.588Z,99225.38
2023-07-25T19:54:55.236Z,99234.03
2023-07-25T19:57:22.864Z,99235.28
2023-07-25T19:59:50.440Z,99235.44
2023-07-25T20:02:17.905Z,99237.09
2023-07-25T20:04:45.449Z,99238.81
2023-07-25T20:07:13.067Z,99238.81
2023-07-25T20:09:40.900Z,99243.56
2023-07-25T20:12:09.526Z,99240.53
2023-07-25T20:14:37.028Z,99238.66
2023-07-25T20:17:04.821Z,99243.38
2023-07-25T20:19:32.511Z,99234.72
2023-07-25T20:22:00.027Z,99243.41
2023-07-25T20:24:27.678Z,99237.78
2023-07-25T20:26:55.136Z,99231.50
2023-07-25T20:29:22.723Z,99235.56
2023-07-25T20:31:50.298Z,99236.41
2023-07-25T20:34:17.882Z,99225.19
2023-07-25T20:36:45.465Z,99241.50
2023-07-25T20:39:13.090Z,99238.94
2023-07-25T20:41:40.707Z,99236.38
2023-07-25T20:44:08.482Z,99247.09
2023-07-25T20:46:36.369Z,99257.63
2023-07-25T20:49:04.385Z,99272.78
2023-07-25T20:51:32.124Z,99271.59
2023-07-25T20:53:59.645Z,99262.41
2023-07-25T20:56:29.837Z,99261.19
2023-07-25T20:58:57.631Z,99248.72
2023-07-25T21:01:25.243Z,99258.38
2023-07-25T21:03:52.817Z,99255.34
2023-07-25T21:06:20.607Z,99267.66
2023-07-25T21:08:48.207Z,99264.06
2023-07-25T21:11:19.749Z,99272.09
2023-07-25T21:13:48.772Z,99250.66
2023-07-25T21:16:16.342Z,99223.75
2023-07-25T21:18:44.298Z,99220.34
2023-07-25T21:21:11.992Z,99244.16
2023-07-25T21:23:39.643Z,99252.34
2023-07-25T21:26:07.116Z,99246.88
2023-07-25T21:28:34.565Z,99255.06
2023-07-25T21:31:02.433Z,99261.69
2023-07-25T21:33:29.921Z,99274.06
2023-07-25T21:36:16.307Z,99270.66
2023-07-25T21:38:44.151Z,99269.28
2023-07-25T21:41:15.899Z,99270.78
2023-07-25T21:43:43.628Z,99299.34
2023-07-25T21:46:11.266Z,99306.28
2023-07-25T21:48:39.091Z,99297.22
2023-07-25T21:51:07.617Z,99296.88
2023-07-25T21:53:35.235Z,99286.50
2023-07-25T21:56:02.778Z,99274.72
2023-07-25T21:58:30.251Z,99271.16
2023-07-25T22:00:59.197Z,99265.41
2023-07-25T22:03:29.497Z,99263.50
2023-07-25T22:05:58.295Z,99247.38
2023-07-25T22:08:25.864Z,99236.88
2023-07-25T22:10:54.614Z,99248.56
2023-07-25T22:13:22.826Z,99249.34
2023-07-25T22:15:50.554Z,99247.59
2023-07-25T22:18:18.205Z,99280.09
2023-07-25T22:20:51.848Z,99286.34
2023-07-25T22:23:21.651Z,99287.34
2023-07-25T22:25:49.522Z,99289.28
2023-07-25T22:28:17.116Z,99288.56
2023-07-25T22:30:44.730Z,99290.06
2023-07-25T22:33:12.257Z,99294.28
2023-07-25T22:35:39.752Z,99314.00
2023-07-25T22:38:07.360Z,99314.44
2023-07-25T22:40:34.911Z,99311.03
2023-07-25T22:43:02.451Z,99312.97
2023-07-25T22:45:30.214Z,99323.56
2023-07-25T22:47:57.745Z,99334.94
2023-07-25T22:50:25.283Z,99355.50
2023-07-25T22:52:52.822Z,99362.78
2023-07-25T22:55:22.514Z,99391.13
2023-07-25T22:57:50.257Z,99394.75
2023-07-25T23:00:17.998Z,99392.97
2023-07-25T23:02:45.888Z,99392.44
2023-07-25T23:05:13.552Z,99390.13
2023-07-25T23:07:41.160Z,99393.22
2023-07-25T23:10:09.063Z,99378.00
2023-07-25T23:12:36.693Z,99381.00
2023-07-25T23:15:05.144Z,99389.34
2023-07-25T23:17:32.729Z,99378.63
2023-07-25T23:20:00.267Z,99369.78
2023-07-25T23:22:27.827Z,99374.34
2023-07-25T23:24:56.962Z,99390.97
2023-07-25T23:27:24.583Z,99412.41
2023-07-25T23:29:52.116Z,99418.53
2023-07-25T23:32:19.697Z,99430.66
2023-07-25T23:34:49.661Z,99416.50
2023-07-25T23:37:18.242Z,99401.84
2023-07-25T23:39:45.895Z,99391.06
2023-07-25T23:42:15.154Z,99380.66
2023-07-25T23:44:42.764Z,99393.06
2023-07-25T23:47:12.910Z,99387.00
2023-07-25T23:49:40.819Z,99386.31
2023-07-25T23:52:08.521Z,99404.06
2023-07-25T23:54:36.231Z,99411.38
2023-07-25T23:57:05.274Z,99417.97
2023-07-25T23:59:33.032Z,99423.00
